Time,TemperatureF,DewpointF,PressureIn,WindDirection,WindDirectionDegrees,WindSpeedMPH,WindSpeedGustMPH,Humidity,HourlyPrecipIn,Conditions,Clouds,dailyrainin,SoftwareType,DateUTC
2013-02-03 00:00:00,17.1,14.0,30.07,West,269,3.0,6.0,89,0.00,,,0.00,weatherlink.com 1.10,2013-02-03 05:00:00,
2013-02-03 00:01:00,17.1,14.4,30.07,NW,311,3.0,5.0,89,0.00,,,0.00,VWS V14.01,2013-02-03 05:01:00,
2013-02-03 00:06:00,16.7,13.8,30.07,West,277,3.0,5.0,88,0.00,,,0.00,VWS V14.01,2013-02-03 05:06:00,
2013-02-03 00:11:00,16.5,13.6,30.07,NW,304,2.0,7.0,88,0.00,,,0.00,VWS V14.01,2013-02-03 05:11:00,
2013-02-03 00:16:00,16.4,13.5,30.07,West,281,1.0,7.0,88,0.00,,,0.00,VWS V14.01,2013-02-03 05:16:00,
2013-02-03 00:21:00,16.3,13.6,30.07,West,264,2.0,7.0,89,0.00,,,0.00,VWS V14.01,2013-02-03 05:21:00,
2013-02-03 00:26:00,16.3,13.6,30.07,NW,310,1.0,7.0,89,0.00,,,0.00,VWS V14.01,2013-02-03 05:26:00,
2013-02-03 00:30:00,16.2,13.5,30.07,WNW,290,2.0,7.0,89,0.00,,,0.00,VWS V14.01,2013-02-03 05:30:00,
2013-02-03 00:31:00,16.0,13.1,30.06,WSW,250,1.0,6.0,88,0.00,,,0.00,VWS V14.01,2013-02-03 05:31:00,
2013-02-03 00:36:00,15.7,12.8,30.06,NW,309,3.0,6.0,88,0.00,,,0.00,VWS V14.01,2013-02-03 05:36:00,
2013-02-03 00:41:00,15.6,12.7,30.06,WNW,283,2.0,2.0,88,0.00,,,0.00,VWS V14.01,2013-02-03 05:41:00,
2013-02-03 00:46:00,15.5,12.6,30.06,West,264,1.0,3.0,88,0.00,,,0.00,VWS V14.01,2013-02-03 05:46:00,
2013-02-03 00:51:00,15.4,13.0,30.06,WSW,256,6.0,6.0,88,0.00,,,0.00,weatherlink.com 1.10,2013-02-03 05:51:00,
2013-02-03 00:56:00,15.2,12.3,30.06,NW,317,1.0,5.0,88,0.00,,,0.00,VWS V14.01,2013-02-03 05:56:00,
2013-02-03 01:00:00,15.2,12.3,30.06,WSW,250,1.0,5.0,88,0.00,,,0.00,VWS V14.01,2013-02-03 06:00:00,
2013-02-03 01:01:00,15.0,11.8,30.05,WNW,294,2.0,5.0,87,0.00,,,0.00,VWS V14.01,2013-02-03 06:01:00,
2013-02-03 01:06:00,14.9,11.7,30.06,WNW,284,2.0,5.0,87,0.00,,,0.00,VWS V14.01,2013-02-03 06:06:00,
2013-02-03 01:11:00,14.8,11.6,30.05,WSW,255,1.0,8.0,87,0.00,,,0.00,VWS V14.01,2013-02-03 06:11:00,
2013-02-03 01:16:00,14.8,11.9,30.05,SW,232,1.0,8.0,88,0.00,,,0.00,VWS V14.01,2013-02-03 06:16:00,
2013-02-03 01:21:00,14.7,11.8,30.05,WSW,256,1.0,2.0,88,0.00,,,0.00,VWS V14.01,2013-02-03 06:21:00,
2013-02-03 01:26:00,14.7,11.8,30.05,WNW,302,0.0,5.0,88,0.00,,,0.00,VWS V14.01,2013-02-03 06:26:00,
2013-02-03 01:30:00,14.6,11.7,30.05,NW,316,3.0,5.0,88,0.00,,,0.00,VWS V14.01,2013-02-03 06:30:00,
2013-02-03 01:31:00,14.6,11.7,30.04,WNW,302,1.0,3.0,88,0.00,,,0.00,VWS V14.01,2013-02-03 06:31:00,
2013-02-03 01:36:00,14.4,11.5,30.04,WNW,290,1.0,3.0,88,0.00,,,0.00,VWS V14.01,2013-02-03 06:36:00,
2013-02-03 01:41:00,14.3,11.1,30.04,NW,309,2.0,4.0,87,0.00,,,0.00,VWS V14.01,2013-02-03 06:41:00,
2013-02-03 01:46:00,14.2,11.1,30.04,WNW,284,3.0,4.0,87,0.00,,,0.00,VWS V14.01,2013-02-03 06:46:00,
2013-02-03 01:51:00,14.0,10.9,30.04,WNW,290,1.0,4.0,87,0.00,,,0.00,VWS V14.01,2013-02-03 06:51:00,
2013-02-03 01:56:00,13.9,10.8,30.04,WNW,285,1.0,4.0,87,0.00,,,0.00,VWS V14.01,2013-02-03 06:56:00,
2013-02-03 02:00:00,13.9,10.8,30.04,West,271,2.0,4.0,87,0.00,,,0.00,VWS V14.01,2013-02-03 07:00:00,
2013-02-03 02:01:00,13.8,10.6,30.04,NW,311,3.0,4.0,87,0.00,,,0.00,VWS V14.01,2013-02-03 07:01:00,
2013-02-03 02:06:00,13.7,10.6,30.04,NW,311,2.0,4.0,87,0.00,,,0.00,VWS V14.01,2013-02-03 07:06:00,
2013-02-03 02:11:00,13.5,10.4,30.04,WNW,290,3.0,5.0,87,0.00,,,0.00,VWS V14.01,2013-02-03 07:11:00,
2013-02-03 02:16:00,13.4,10.3,30.04,West,260,1.0,5.0,87,0.00,,,0.00,VWS V14.01,2013-02-03 07:16:00,
2013-02-03 02:21:00,13.3,9.9,30.03,SW,226,1.0,5.0,86,0.00,,,0.00,VWS V14.01,2013-02-03 07:21:00,
2013-02-03 02:26:00,13.1,9.7,30.04,West,269,0.0,5.0,86,0.00,,,0.00,VWS V14.01,2013-02-03 07:26:00,
2013-02-03 02:30:00,13.0,9.6,30.04,WNW,293,1.0,5.0,86,0.00,,,0.00,VWS V14.01,2013-02-03 07:30:00,
2013-02-03 02:31:00,13.0,9.6,30.04,West,274,3.0,3.0,86,0.00,,,0.00,VWS V14.01,2013-02-03 07:31:00,
2013-02-03 02:36:00,13.0,9.6,30.04,West,263,1.0,5.0,86,0.00,,,0.00,VWS V14.01,2013-02-03 07:36:00,
2013-02-03 02:41:00,12.8,9.1,30.04,WNW,302,1.0,5.0,85,0.00,,,0.00,VWS V14.01,2013-02-03 07:41:00,
2013-02-03 02:46:00,12.7,9.1,30.04,WSW,253,1.0,5.0,85,0.00,,,0.00,VWS V14.01,2013-02-03 07:46:00,
2013-02-03 02:51:00,12.6,9.0,30.04,West,277,1.0,5.0,85,0.00,,,0.00,VWS V14.01,2013-02-03 07:51:00,
2013-02-03 02:56:00,12.5,8.9,30.04,WNW,289,1.0,5.0,85,0.00,,,0.00,VWS V14.01,2013-02-03 07:56:00,
2013-02-03 03:00:00,12.5,8.9,30.04,WNW,297,3.0,5.0,85,0.00,,,0.00,VWS V14.01,2013-02-03 08:00:00,
2013-02-03 03:01:00,12.5,8.9,30.04,WNW,300,1.0,4.0,85,0.00,,,0.00,VWS V14.01,2013-02-03 08:01:00,
2013-02-03 03:06:00,12.5,8.9,30.04,West,262,2.0,5.0,85,0.00,,,0.00,VWS V14.01,2013-02-03 08:06:00,
2013-02-03 03:11:00,12.5,8.9,30.04,WSW,255,2.0,5.0,85,0.00,,,0.00,VWS V14.01,2013-02-03 08:11:00,
2013-02-03 03:16:00,12.5,8.9,30.03,NW,317,2.0,5.0,85,0.00,,,0.00,VWS V14.01,2013-02-03 08:16:00,
2013-02-03 03:21:00,12.6,9.0,30.03,WNW,293,1.0,5.0,85,0.00,,,0.00,VWS V14.01,2013-02-03 08:21:00,
2013-02-03 03:26:00,12.5,8.6,30.03,WSW,250,1.0,5.0,84,0.00,,,0.00,VWS V14.01,2013-02-03 08:26:00,
2013-02-03 03:30:00,12.5,8.6,30.03,NW,317,0.0,5.0,84,0.00,,,0.00,VWS V14.01,2013-02-03 08:30:00,
2013-02-03 03:31:00,12.5,8.6,30.03,NNW,330,1.0,2.0,84,0.00,,,0.00,VWS V14.01,2013-02-03 08:31:00,
2013-02-03 03:36:00,12.5,8.6,30.02,West,266,0.0,3.0,84,0.00,,,0.00,VWS V14.01,2013-02-03 08:36:00,
2013-02-03 03:41:00,12.5,8.6,30.02,WSW,248,2.0,3.0,84,0.00,,,0.00,VWS V14.01,2013-02-03 08:41:00,
2013-02-03 03:46:00,12.4,8.5,30.02,WNW,299,0.0,3.0,84,0.00,,,0.00,VWS V14.01,2013-02-03 08:46:00,
2013-02-03 03:51:00,12.4,8.5,30.02,NW,311,2.0,4.0,84,0.00,,,0.00,VWS V14.01,2013-02-03 08:51:00,
2013-02-03 03:56:00,12.2,8.3,30.01,West,277,0.0,4.0,84,0.00,,,0.00,VWS V14.01,2013-02-03 08:56:00,
2013-02-03 04:00:00,12.2,8.3,30.01,WNW,289,0.0,4.0,84,0.00,,,0.00,VWS V14.01,2013-02-03 09:00:00,
2013-02-03 04:01:00,12.1,8.2,30.01,WNW,291,2.0,3.0,84,0.00,,,0.00,VWS V14.01,2013-02-03 09:01:00,
2013-02-03 04:06:00,11.9,8.0,30.01,WNW,287,0.0,3.0,84,0.00,,,0.00,VWS V14.01,2013-02-03 09:06:00,
2013-02-03 04:11:00,11.7,7.8,30.02,WNW,300,1.0,3.0,84,0.00,,,0.00,VWS V14.01,2013-02-03 09:11:00,
2013-02-03 04:16:00,11.4,7.5,30.01,WNW,297,0.0,3.0,84,0.00,,,0.00,VWS V14.01,2013-02-03 09:16:00,
2013-02-03 04:21:00,11.2,7.3,30.01,WNW,297,0.0,3.0,84,0.00,,,0.00,VWS V14.01,2013-02-03 09:21:00,
2013-02-03 04:26:00,11.0,7.4,30.01,WNW,291,0.0,3.0,85,0.00,,,0.00,VWS V14.01,2013-02-03 09:26:00,
2013-02-03 04:30:00,10.9,7.3,30.01,WNW,292,0.0,3.0,85,0.00,,,0.00,VWS V14.01,2013-02-03 09:30:00,
2013-02-03 04:31:00,10.8,7.2,30.01,WNW,284,0.0,3.0,85,0.00,,,0.00,VWS V14.01,2013-02-03 09:31:00,
2013-02-03 04:36:00,10.7,7.1,30.01,West,273,0.0,3.0,85,0.00,,,0.00,VWS V14.01,2013-02-03 09:36:00,
2013-02-03 04:41:00,10.5,7.2,30.00,West,273,0.0,3.0,86,0.00,,,0.00,VWS V14.01,2013-02-03 09:41:00,
2013-02-03 04:46:00,10.4,7.1,30.00,NW,314,0.0,3.0,86,0.00,,,0.00,VWS V14.01,2013-02-03 09:46:00,
2013-02-03 04:51:00,10.4,7.3,30.00,WNW,286,0.0,3.0,87,0.00,,,0.00,VWS V14.01,2013-02-03 09:51:00,
2013-02-03 04:56:00,10.5,7.4,30.00,NW,307,0.0,3.0,87,0.00,,,0.00,VWS V14.01,2013-02-03 09:56:00,
2013-02-03 05:00:00,10.5,7.4,30.00,NW,307,0.0,3.0,87,0.00,,,0.00,VWS V14.01,2013-02-03 10:00:00,
2013-02-03 05:01:00,10.6,7.5,30.00,WNW,302,0.0,1.0,87,0.00,,,0.00,VWS V14.01,2013-02-03 10:01:00,
2013-02-03 05:06:00,10.6,7.2,30.00,NW,306,0.0,2.0,86,0.00,,,0.00,VWS V14.01,2013-02-03 10:06:00,
2013-02-03 05:11:00,10.7,7.3,30.00,West,281,0.0,2.0,86,0.00,,,0.00,VWS V14.01,2013-02-03 10:11:00,
2013-02-03 05:16:00,10.7,7.3,30.00,West,276,1.0,3.0,86,0.00,,,0.00,VWS V14.01,2013-02-03 10:16:00,
2013-02-03 05:21:00,10.7,7.3,30.00,WNW,284,1.0,5.0,86,0.00,,,0.00,VWS V14.01,2013-02-03 10:21:00,
2013-02-03 05:26:00,10.8,7.4,30.00,WSW,252,1.0,5.0,86,0.00,,,0.00,VWS V14.01,2013-02-03 10:26:00,
2013-02-03 05:30:00,10.8,7.4,30.00,West,281,1.0,5.0,86,0.00,,,0.00,VWS V14.01,2013-02-03 10:30:00,
2013-02-03 05:31:00,10.8,7.4,30.00,WNW,294,0.0,1.0,86,0.00,,,0.00,VWS V14.01,2013-02-03 10:31:00,
2013-02-03 05:36:00,10.8,7.4,30.00,WNW,283,0.0,1.0,86,0.00,,,0.00,VWS V14.01,2013-02-03 10:36:00,
2013-02-03 05:41:00,10.9,7.5,30.00,NW,323,2.0,3.0,86,0.00,,,0.00,VWS V14.01,2013-02-03 10:41:00,
2013-02-03 05:46:00,10.9,7.5,30.00,West,278,0.0,3.0,86,0.00,,,0.00,VWS V14.01,2013-02-03 10:46:00,
2013-02-03 05:51:00,10.9,7.5,30.00,WSW,257,0.0,4.0,86,0.00,,,0.00,VWS V14.01,2013-02-03 10:51:00,
2013-02-03 05:56:00,10.9,7.5,30.00,WNW,287,0.0,4.0,86,0.00,,,0.00,VWS V14.01,2013-02-03 10:56:00,
2013-02-03 06:00:00,11.0,7.6,30.00,West,267,0.0,4.0,86,0.00,,,0.00,VWS V14.01,2013-02-03 11:00:00,
2013-02-03 06:01:00,11.0,7.6,30.00,WNW,289,2.0,4.0,86,0.00,,,0.00,VWS V14.01,2013-02-03 11:01:00,
2013-02-03 06:07:00,11.0,7.4,30.00,West,263,1.0,1.0,85,0.00,,,0.00,VWS V14.01,2013-02-03 11:07:00,
2013-02-03 06:12:00,11.0,7.4,29.99,WNW,285,0.0,5.0,85,0.00,,,0.00,VWS V14.01,2013-02-03 11:12:00,
2013-02-03 06:17:00,11.1,7.5,30.00,WSW,250,2.0,2.0,85,0.00,,,0.00,VWS V14.01,2013-02-03 11:17:00,
2013-02-03 06:22:00,11.2,7.6,30.00,SW,215,2.0,4.0,85,0.00,,,0.00,VWS V14.01,2013-02-03 11:22:00,
2013-02-03 06:27:00,11.2,7.6,30.00,WNW,289,0.0,4.0,85,0.00,,,0.00,VWS V14.01,2013-02-03 11:27:00,
2013-02-03 06:30:00,11.2,7.6,30.00,WNW,289,0.0,4.0,85,0.00,,,0.00,VWS V14.01,2013-02-03 11:30:00,
2013-02-03 06:32:00,11.3,7.7,30.00,West,259,0.0,2.0,85,0.00,,,0.00,VWS V14.01,2013-02-03 11:32:00,
2013-02-03 06:37:00,11.4,7.5,30.00,West,266,1.0,2.0,84,0.00,,,0.00,VWS V14.01,2013-02-03 11:37:00,
2013-02-03 06:42:00,11.4,7.5,29.99,West,262,1.0,3.0,84,0.00,,,0.00,VWS V14.01,2013-02-03 11:42:00,
2013-02-03 06:47:00,11.5,7.3,30.00,West,279,1.0,3.0,83,0.00,,,0.00,VWS V14.01,2013-02-03 11:47:00,
2013-02-03 06:52:00,11.5,7.3,30.00,West,278,1.0,3.0,83,0.00,,,0.00,VWS V14.01,2013-02-03 11:52:00,
2013-02-03 06:57:00,11.5,7.3,29.99,WSW,252,0.0,0.0,83,0.00,,,0.00,VWS V14.01,2013-02-03 11:57:00,
2013-02-03 07:00:00,11.5,7.3,30.00,WSW,252,0.0,3.0,83,0.00,,,0.00,VWS V14.01,2013-02-03 12:00:00,
2013-02-03 07:02:00,11.6,7.4,30.00,West,262,1.0,2.0,83,0.00,,,0.00,VWS V14.01,2013-02-03 12:02:00,
2013-02-03 07:07:00,11.7,7.3,30.00,WNW,290,2.0,3.0,82,0.00,,,0.00,VWS V14.01,2013-02-03 12:07:00,
2013-02-03 07:12:00,11.7,7.3,30.00,WNW,287,0.0,3.0,82,0.00,,,0.00,VWS V14.01,2013-02-03 12:12:00,
2013-02-03 07:17:00,11.7,7.3,30.00,West,259,1.0,3.0,82,0.00,,,0.00,VWS V14.01,2013-02-03 12:17:00,
2013-02-03 07:22:00,11.8,7.4,30.00,WNW,287,0.0,3.0,82,0.00,,,0.00,VWS V14.01,2013-02-03 12:22:00,
2013-02-03 07:27:00,11.8,7.4,30.00,WNW,302,1.0,1.0,82,0.00,,,0.00,VWS V14.01,2013-02-03 12:27:00,
2013-02-03 07:30:00,11.8,7.4,30.00,WNW,297,1.0,3.0,82,0.00,,,0.00,VWS V14.01,2013-02-03 12:30:00,
2013-02-03 07:32:00,11.8,7.4,30.01,West,276,1.0,4.0,82,0.00,,,0.00,VWS V14.01,2013-02-03 12:32:00,
2013-02-03 07:37:00,11.9,7.5,30.01,WNW,299,2.0,4.0,82,0.00,,,0.00,VWS V14.01,2013-02-03 12:37:00,
2013-02-03 07:42:00,12.0,7.6,30.01,WSW,246,0.0,6.0,82,0.00,,,0.00,VWS V14.01,2013-02-03 12:42:00,
2013-02-03 07:47:00,12.1,7.9,30.02,WSW,250,0.0,6.0,83,0.00,,,0.00,VWS V14.01,2013-02-03 12:47:00,
2013-02-03 07:52:00,12.1,7.9,30.02,WSW,243,1.0,6.0,83,0.00,,,0.00,VWS V14.01,2013-02-03 12:52:00,
2013-02-03 07:57:00,12.2,8.3,30.02,WNW,300,1.0,6.0,84,0.00,,,0.00,VWS V14.01,2013-02-03 12:57:00,
2013-02-03 08:00:00,12.2,8.3,30.02,WNW,300,1.0,6.0,84,0.00,,,0.00,VWS V14.01,2013-02-03 13:00:00,
2013-02-03 08:02:00,12.4,8.5,30.03,WSW,238,0.0,3.0,84,0.00,,,0.00,VWS V14.01,2013-02-03 13:02:00,
2013-02-03 08:07:00,12.5,8.6,30.03,WSW,238,0.0,3.0,84,0.00,,,0.00,VWS V14.01,2013-02-03 13:07:00,
2013-02-03 08:12:00,12.6,8.7,30.03,SW,228,0.0,4.0,84,0.00,,,0.00,VWS V14.01,2013-02-03 13:12:00,
2013-02-03 08:17:00,12.6,8.7,30.02,NW,314,1.0,4.0,84,0.00,,,0.00,VWS V14.01,2013-02-03 13:17:00,
2013-02-03 08:22:00,12.7,8.8,30.02,WNW,300,0.0,4.0,84,0.00,,,0.00,VWS V14.01,2013-02-03 13:22:00,
2013-02-03 08:27:00,12.8,8.9,30.02,West,280,1.0,4.0,84,0.00,,,0.00,VWS V14.01,2013-02-03 13:27:00,
2013-02-03 08:30:00,13.9,10.0,30.03,WNW,301,2.0,5.0,84,0.00,,,0.00,VWS V14.01,2013-02-03 13:30:00,
2013-02-03 08:32:00,12.9,9.0,30.02,WNW,294,1.0,4.0,84,0.00,,,0.00,VWS V14.01,2013-02-03 13:32:00,
2013-02-03 08:37:00,13.0,9.1,30.03,WSW,250,1.0,4.0,84,0.00,,,0.00,VWS V14.01,2013-02-03 13:37:00,
2013-02-03 08:42:00,13.1,9.2,30.03,WSW,257,0.0,4.0,84,0.00,,,0.00,VWS V14.01,2013-02-03 13:42:00,
2013-02-03 08:47:00,13.2,9.3,30.02,West,278,1.0,4.0,84,0.00,,,0.00,VWS V14.01,2013-02-03 13:47:00,
2013-02-03 08:52:00,13.2,9.3,30.02,NW,319,2.0,4.0,84,0.00,,,0.00,VWS V14.01,2013-02-03 13:52:00,
2013-02-03 08:57:00,13.4,9.5,30.02,West,264,2.0,2.0,84,0.00,,,0.00,VWS V14.01,2013-02-03 13:57:00,
2013-02-03 09:00:00,13.4,9.5,30.02,West,263,1.0,4.0,84,0.00,,,0.00,VWS V14.01,2013-02-03 14:00:00,
2013-02-03 09:02:00,13.4,9.5,30.03,NW,309,3.0,5.0,84,0.00,,,0.00,VWS V14.01,2013-02-03 14:02:00,
2013-02-03 09:07:00,13.6,9.7,30.03,NW,304,1.0,5.0,84,0.00,,,0.00,VWS V14.01,2013-02-03 14:07:00,
2013-02-03 09:12:00,13.7,9.8,30.03,NW,312,2.0,5.0,84,0.00,,,0.00,VWS V14.01,2013-02-03 14:12:00,
2013-02-03 09:17:00,13.8,9.9,30.03,WNW,297,2.0,5.0,84,0.00,,,0.00,VWS V14.01,2013-02-03 14:17:00,
2013-02-03 09:22:00,13.9,10.0,30.03,WNW,299,1.0,5.0,84,0.00,,,0.00,VWS V14.01,2013-02-03 14:22:00,
2013-02-03 09:27:00,13.9,10.0,30.03,WNW,301,2.0,5.0,84,0.00,,,0.00,VWS V14.01,2013-02-03 14:27:00,
2013-02-03 09:30:00,13.9,10.0,30.03,WNW,301,2.0,5.0,84,0.00,,,0.00,VWS V14.01,2013-02-03 14:30:00,
2013-02-03 09:32:00,14.1,10.2,30.03,West,280,0.0,4.0,84,0.00,,,0.00,VWS V14.01,2013-02-03 14:32:00,
2013-02-03 09:37:00,14.3,10.4,30.03,WNW,297,1.0,4.0,84,0.00,,,0.00,VWS V14.01,2013-02-03 14:37:00,
2013-02-03 09:42:00,14.7,10.8,30.03,West,269,1.0,4.0,84,0.00,,,0.00,VWS V14.01,2013-02-03 14:42:00,
2013-02-03 09:47:00,14.9,10.9,30.03,WNW,282,2.0,5.0,84,0.00,,,0.00,VWS V14.01,2013-02-03 14:47:00,
2013-02-03 09:52:00,14.9,10.7,30.03,NW,304,1.0,6.0,83,0.00,,,0.00,VWS V14.01,2013-02-03 14:52:00,
2013-02-03 09:57:00,14.9,10.9,30.03,West,277,0.0,6.0,84,0.00,,,0.00,VWS V14.01,2013-02-03 14:57:00,
2013-02-03 10:00:00,14.9,10.9,30.03,SW,226,0.0,6.0,84,0.00,,,0.00,VWS V14.01,2013-02-03 15:00:00,
2013-02-03 10:02:00,15.1,11.1,30.03,NNW,333,0.0,3.0,84,0.00,,,0.00,VWS V14.01,2013-02-03 15:02:00,
2013-02-03 10:07:00,15.6,11.6,30.02,WSW,243,1.0,4.0,84,0.00,,,0.00,VWS V14.01,2013-02-03 15:07:00,
2013-02-03 10:12:00,15.6,11.4,30.02,WNW,294,2.0,4.0,83,0.00,,,0.00,VWS V14.01,2013-02-03 15:12:00,
2013-02-03 10:17:00,15.9,11.7,30.02,WNW,293,3.0,4.0,83,0.00,,,0.00,VWS V14.01,2013-02-03 15:17:00,
2013-02-03 10:22:00,16.1,11.9,30.02,SE,137,3.0,4.0,83,0.00,,,0.00,VWS V14.01,2013-02-03 15:22:00,
2013-02-03 10:27:00,16.5,12.0,30.02,WNW,294,3.0,4.0,82,0.00,,,0.00,VWS V14.01,2013-02-03 15:27:00,
2013-02-03 10:30:00,16.5,12.0,30.02,WNW,294,3.0,4.0,82,0.00,,,0.00,VWS V14.01,2013-02-03 15:30:00,
2013-02-03 10:32:00,16.5,12.2,30.03,NW,306,4.0,5.0,83,0.00,,,0.00,VWS V14.01,2013-02-03 15:32:00,
2013-02-03 10:37:00,16.7,12.4,30.03,West,269,0.0,5.0,83,0.00,,,0.00,VWS V14.01,2013-02-03 15:37:00,
2013-02-03 10:42:00,16.7,11.9,30.02,WSW,253,0.0,6.0,81,0.00,,,0.00,VWS V14.01,2013-02-03 15:42:00,
2013-02-03 10:47:00,16.8,12.0,30.02,West,259,2.0,6.0,81,0.00,,,0.00,VWS V14.01,2013-02-03 15:47:00,
2013-02-03 10:52:00,16.9,12.1,30.02,West,281,2.0,3.0,81,0.00,,,0.00,VWS V14.01,2013-02-03 15:52:00,
2013-02-03 10:57:00,17.1,12.6,30.02,NW,312,3.0,6.0,82,0.00,,,0.00,VWS V14.01,2013-02-03 15:57:00,
2013-02-03 11:00:00,17.1,12.6,30.02,WNW,294,5.0,6.0,82,0.00,,,0.00,VWS V14.01,2013-02-03 16:00:00,
2013-02-03 11:02:00,17.3,12.8,30.03,WNW,287,1.0,5.0,82,0.00,,,0.00,VWS V14.01,2013-02-03 16:02:00,
2013-02-03 11:07:00,17.4,12.9,30.03,West,280,3.0,7.0,82,0.00,,,0.00,VWS V14.01,2013-02-03 16:07:00,
2013-02-03 11:12:00,17.4,12.6,30.03,WNW,293,6.0,7.0,81,0.00,,,0.00,VWS V14.01,2013-02-03 16:12:00,
2013-02-03 11:17:00,17.6,13.1,30.03,SW,231,3.0,7.0,82,0.00,,,0.00,VWS V14.01,2013-02-03 16:17:00,
2013-02-03 11:22:00,17.5,12.7,30.03,WNW,288,4.0,7.0,81,0.00,,,0.00,VWS V14.01,2013-02-03 16:22:00,
2013-02-03 11:27:00,17.7,13.1,30.03,NW,317,0.0,4.0,82,0.00,,,0.00,VWS V14.01,2013-02-03 16:27:00,
2013-02-03 11:30:00,17.7,13.1,30.03,WNW,297,1.0,4.0,82,0.00,,,0.00,VWS V14.01,2013-02-03 16:30:00,
2013-02-03 11:32:00,18.1,13.3,30.03,SW,231,2.0,6.0,81,0.00,,,0.00,VWS V14.01,2013-02-03 16:32:00,
2013-02-03 11:37:00,18.1,13.3,30.03,NW,307,1.0,6.0,81,0.00,,,0.00,VWS V14.01,2013-02-03 16:37:00,
2013-02-03 11:42:00,18.2,13.4,30.03,West,279,1.0,7.0,81,0.00,,,0.00,VWS V14.01,2013-02-03 16:42:00,
2013-02-03 11:47:00,18.7,14.0,30.04,NW,307,1.0,7.0,82,0.00,,,0.00,weatherlink.com 1.10,2013-02-03 16:47:00,
2013-02-03 11:52:00,18.6,13.5,30.03,NW,318,3.0,7.0,80,0.00,,,0.00,VWS V14.01,2013-02-03 16:52:00,
2013-02-03 11:57:00,18.8,14.2,30.03,WNW,291,1.0,7.0,82,0.00,,,0.00,VWS V14.01,2013-02-03 16:57:00,
2013-02-03 12:00:00,18.8,14.2,30.03,WNW,291,1.0,7.0,82,0.00,,,0.00,VWS V14.01,2013-02-03 17:00:00,
2013-02-03 12:02:00,19.0,13.9,30.02,WNW,301,2.0,4.0,80,0.00,,,0.00,VWS V14.01,2013-02-03 17:02:00,
2013-02-03 12:07:00,19.0,14.1,30.02,West,274,2.0,6.0,81,0.00,,,0.00,VWS V14.01,2013-02-03 17:07:00,
2013-02-03 12:12:00,19.0,14.1,30.02,NW,315,3.0,6.0,81,0.00,,,0.00,VWS V14.01,2013-02-03 17:12:00,
2013-02-03 12:17:00,19.0,13.9,30.02,WNW,297,5.0,8.0,80,0.00,,,0.00,VWS V14.01,2013-02-03 17:17:00,
2013-02-03 12:22:00,19.0,14.1,30.02,West,267,3.0,8.0,81,0.00,,,0.00,VWS V14.01,2013-02-03 17:22:00,
2013-02-03 12:27:00,19.3,14.7,30.03,WNW,283,6.0,8.0,82,0.00,,,0.00,VWS V14.01,2013-02-03 17:27:00,
2013-02-03 12:30:00,19.3,14.7,30.03,WNW,283,6.0,8.0,82,0.00,,,0.00,VWS V14.01,2013-02-03 17:30:00,
2013-02-03 12:32:00,19.4,14.5,30.03,West,277,6.0,8.0,81,0.00,,,0.00,VWS V14.01,2013-02-03 17:32:00,
2013-02-03 12:37:00,19.3,14.1,30.03,West,262,5.0,9.0,80,0.00,,,0.00,VWS V14.01,2013-02-03 17:37:00,
2013-02-03 12:43:00,19.3,14.4,30.02,NW,312,0.0,0.0,81,0.00,,,0.00,VWS V14.01,2013-02-03 17:43:00,
2013-02-03 12:48:00,19.7,15.1,30.02,WNW,297,3.0,5.0,82,0.00,,,0.00,VWS V14.01,2013-02-03 17:48:00,
2013-02-03 12:53:00,19.7,14.8,30.02,NW,312,2.0,8.0,81,0.00,,,0.00,VWS V14.01,2013-02-03 17:53:00,
2013-02-03 12:58:00,19.9,15.3,30.02,NW,306,3.0,6.0,82,0.00,,,0.00,VWS V14.01,2013-02-03 17:58:00,
2013-02-03 13:00:00,19.8,15.2,30.02,West,281,2.0,9.0,82,0.00,,,0.00,VWS V14.01,2013-02-03 18:00:00,
2013-02-03 13:03:00,19.9,15.3,30.02,WNW,300,1.0,6.0,82,0.00,,,0.00,VWS V14.01,2013-02-03 18:03:00,
2013-02-03 13:08:00,20.4,15.8,30.03,NW,317,3.0,6.0,82,0.00,,,0.00,VWS V14.01,2013-02-03 18:08:00,
2013-02-03 13:13:00,20.6,16.0,30.03,SSW,195,3.0,6.0,82,0.00,,,0.00,VWS V14.01,2013-02-03 18:13:00,
2013-02-03 13:18:00,20.8,15.9,30.03,NW,315,4.0,7.0,81,0.00,,,0.00,VWS V14.01,2013-02-03 18:18:00,
2013-02-03 13:23:00,20.9,16.0,30.03,West,263,5.0,8.0,81,0.00,,,0.00,VWS V14.01,2013-02-03 18:23:00,
2013-02-03 13:28:00,20.8,15.6,30.04,WNW,299,6.0,6.0,80,0.00,,,0.00,VWS V14.01,2013-02-03 18:28:00,
2013-02-03 13:30:00,20.8,15.9,30.03,WNW,297,2.0,9.0,81,0.00,,,0.00,VWS V14.01,2013-02-03 18:30:00,
2013-02-03 13:33:00,20.8,15.9,30.03,WSW,240,8.0,8.0,81,0.00,,,0.00,VWS V14.01,2013-02-03 18:33:00,
2013-02-03 13:38:00,21.1,16.5,30.03,WNW,287,3.0,8.0,82,0.00,,,0.00,VWS V14.01,2013-02-03 18:38:00,
2013-02-03 13:43:00,21.2,16.6,30.03,NW,309,3.0,8.0,82,0.00,,,0.00,VWS V14.01,2013-02-03 18:43:00,
2013-02-03 13:48:00,21.7,17.1,30.03,WNW,294,2.0,8.0,82,0.00,,,0.00,VWS V14.01,2013-02-03 18:48:00,
2013-02-03 13:53:00,21.6,17.0,30.03,WNW,300,4.0,11.0,82,0.00,,,0.00,VWS V14.01,2013-02-03 18:53:00,
2013-02-03 13:58:00,21.3,17.0,30.03,NW,314,2.0,5.0,83,0.00,,,0.00,VWS V14.01,2013-02-03 18:58:00,
2013-02-03 14:00:00,21.3,17.0,30.03,West,281,5.0,11.0,83,0.00,,,0.00,VWS V14.01,2013-02-03 19:00:00,
2013-02-03 14:03:00,21.3,17.0,30.03,WSW,253,6.0,9.0,83,0.00,,,0.00,VWS V14.01,2013-02-03 19:03:00,
2013-02-03 14:08:00,21.3,17.2,30.03,NW,304,1.0,9.0,84,0.00,,,0.00,VWS V14.01,2013-02-03 19:08:00,
2013-02-03 14:13:00,21.3,17.5,30.03,NNW,337,4.0,9.0,85,0.00,,,0.00,VWS V14.01,2013-02-03 19:13:00,
2013-02-03 14:18:00,21.2,17.4,30.03,West,266,4.0,9.0,85,0.00,,,0.00,VWS V14.01,2013-02-03 19:18:00,
2013-02-03 14:23:00,21.4,17.6,30.03,WSW,257,0.0,9.0,85,0.00,,,0.00,VWS V14.01,2013-02-03 19:23:00,
2013-02-03 14:28:00,21.5,17.7,30.03,WSW,252,6.0,6.0,85,0.00,,,0.00,VWS V14.01,2013-02-03 19:28:00,
2013-02-03 14:30:00,21.5,17.7,30.03,WSW,257,4.0,9.0,85,0.00,,,0.00,VWS V14.01,2013-02-03 19:30:00,
2013-02-03 14:33:00,21.4,17.9,30.03,WSW,255,2.0,9.0,86,0.00,,,0.00,VWS V14.01,2013-02-03 19:33:00,
2013-02-03 14:38:00,21.6,18.1,30.03,WNW,300,4.0,7.0,86,0.00,,,0.00,VWS V14.01,2013-02-03 19:38:00,
2013-02-03 14:43:00,21.6,18.1,30.04,NW,317,5.0,8.0,86,0.00,,,0.00,VWS V14.01,2013-02-03 19:43:00,
2013-02-03 14:48:00,21.8,18.3,30.04,WNW,300,4.0,9.0,86,0.00,,,0.00,VWS V14.01,2013-02-03 19:48:00,
2013-02-03 14:53:00,22.1,18.8,30.04,WNW,289,5.0,9.0,87,0.00,,,0.00,VWS V14.01,2013-02-03 19:53:00,
2013-02-03 14:58:00,22.1,18.6,30.04,WNW,287,4.0,4.0,86,0.00,,,0.00,VWS V14.01,2013-02-03 19:58:00,
2013-02-03 15:00:00,22.1,18.6,30.04,West,270,3.0,6.0,86,0.00,,,0.00,VWS V14.01,2013-02-03 20:00:00,
2013-02-03 15:03:00,22.0,18.7,30.04,NW,304,3.0,6.0,87,0.00,,,0.00,VWS V14.01,2013-02-03 20:03:00,
2013-02-03 15:08:00,21.8,18.8,30.04,NW,306,6.0,8.0,88,0.00,,,0.00,VWS V14.01,2013-02-03 20:08:00,
2013-02-03 15:13:00,21.7,19.0,30.04,NW,307,3.0,8.0,89,0.00,,,0.00,VWS V14.01,2013-02-03 20:13:00,
2013-02-03 15:18:00,21.9,19.4,30.05,NW,311,1.0,8.0,90,0.00,,,0.00,VWS V14.01,2013-02-03 20:18:00,
2013-02-03 15:23:00,22.2,19.5,30.05,WNW,283,3.0,8.0,89,0.00,,,0.00,VWS V14.01,2013-02-03 20:23:00,
2013-02-03 15:28:00,22.4,18.9,30.05,North,349,7.0,8.0,86,0.00,,,0.00,VWS V14.01,2013-02-03 20:28:00,
2013-02-03 15:30:00,22.4,19.1,30.05,WNW,297,4.0,10.0,87,0.00,,,0.00,VWS V14.01,2013-02-03 20:30:00,
2013-02-03 15:33:00,22.5,18.4,30.05,WNW,288,4.0,11.0,84,0.00,,,0.00,VWS V14.01,2013-02-03 20:33:00,
2013-02-03 15:38:00,22.7,18.3,30.05,West,273,3.0,13.0,83,0.00,,,0.00,VWS V14.01,2013-02-03 20:38:00,
2013-02-03 15:43:00,22.8,18.4,30.06,WNW,297,3.0,13.0,83,0.00,,,0.00,VWS V14.01,2013-02-03 20:43:00,
2013-02-03 15:48:00,22.8,18.4,30.06,NW,315,3.0,13.0,83,0.00,,,0.00,VWS V14.01,2013-02-03 20:48:00,
2013-02-03 15:53:00,22.7,18.0,30.06,WNW,289,4.0,13.0,82,0.00,,,0.00,VWS V14.01,2013-02-03 20:53:00,
2013-02-03 15:58:00,22.8,18.1,30.06,WSW,250,2.0,4.0,82,0.00,,,0.00,VWS V14.01,2013-02-03 20:58:00,
2013-02-03 16:00:00,22.8,18.1,30.06,WNW,293,2.0,13.0,82,0.00,,,0.00,VWS V14.01,2013-02-03 21:00:00,
2013-02-03 16:03:00,22.7,17.8,30.06,NW,314,6.0,12.0,81,0.00,,,0.00,VWS V14.01,2013-02-03 21:03:00,
2013-02-03 16:08:00,22.7,17.8,30.07,WNW,294,6.0,12.0,81,0.00,,,0.00,VWS V14.01,2013-02-03 21:08:00,
2013-02-03 16:13:00,22.6,17.7,30.07,WNW,299,7.0,7.0,81,0.00,,,0.00,VWS V14.01,2013-02-03 21:13:00,
2013-02-03 16:18:00,22.7,17.8,30.08,West,273,4.0,8.0,81,0.00,,,0.00,VWS V14.01,2013-02-03 21:18:00,
2013-02-03 16:23:00,22.7,17.8,30.08,WNW,287,9.0,9.0,81,0.00,,,0.00,VWS V14.01,2013-02-03 21:23:00,
2013-02-03 16:28:00,22.7,17.5,30.08,WNW,284,4.0,6.0,80,0.00,,,0.00,VWS V14.01,2013-02-03 21:28:00,
2013-02-03 16:30:00,22.7,17.5,30.08,NW,310,1.0,9.0,80,0.00,,,0.00,VWS V14.01,2013-02-03 21:30:00,
2013-02-03 16:33:00,22.8,17.6,30.08,WSW,248,5.0,10.0,80,0.00,,,0.00,VWS V14.01,2013-02-03 21:33:00,
2013-02-03 16:38:00,22.9,17.7,30.08,SW,226,5.0,14.0,80,0.00,,,0.00,VWS V14.01,2013-02-03 21:38:00,
2013-02-03 16:43:00,22.8,17.6,30.07,WSW,257,10.0,14.0,80,0.00,,,0.00,VWS V14.01,2013-02-03 21:43:00,
2013-02-03 16:48:00,22.7,17.5,30.08,West,276,6.0,14.0,80,0.00,,,0.00,VWS V14.01,2013-02-03 21:48:00,
2013-02-03 16:53:00,22.7,17.2,30.08,WNW,284,5.0,14.0,79,0.00,,,0.00,VWS V14.01,2013-02-03 21:53:00,
2013-02-03 16:58:00,22.5,17.0,30.08,NW,316,7.0,12.0,79,0.00,,,0.00,VWS V14.01,2013-02-03 21:58:00,
2013-02-03 17:00:00,22.5,17.0,30.08,WNW,283,2.0,14.0,79,0.00,,,0.00,VWS V14.01,2013-02-03 22:00:00,
2013-02-03 17:08:00,22.1,16.3,30.08,NW,312,3.0,3.0,78,0.00,,,0.00,VWS V14.01,2013-02-03 22:08:00,
2013-02-03 17:13:00,21.9,16.1,30.08,WNW,297,3.0,3.0,78,0.00,,,0.00,VWS V14.01,2013-02-03 22:13:00,
2013-02-03 17:20:00,21.7,16.2,30.08,WNW,289,1.0,1.0,79,0.00,,,0.00,VWS V14.01,2013-02-03 22:20:00,
2013-02-03 17:25:00,21.6,16.1,30.09,WNW,287,3.0,3.0,79,0.00,,,0.00,VWS V14.01,2013-02-03 22:25:00,
2013-02-03 17:30:00,21.5,16.0,30.09,WNW,301,4.0,7.0,79,0.00,,,0.00,VWS V14.01,2013-02-03 22:30:00,
2013-02-03 17:35:00,21.3,16.1,30.09,NW,309,4.0,8.0,80,0.00,,,0.00,VWS V14.01,2013-02-03 22:35:00,
2013-02-03 17:40:00,21.3,16.1,30.09,West,277,1.0,10.0,80,0.00,,,0.00,VWS V14.01,2013-02-03 22:40:00,
2013-02-03 17:45:00,21.2,16.0,30.09,West,280,3.0,10.0,80,0.00,,,0.00,VWS V14.01,2013-02-03 22:45:00,
2013-02-03 17:50:00,21.0,16.1,30.09,West,278,2.0,10.0,81,0.00,,,0.00,VWS V14.01,2013-02-03 22:50:00,
2013-02-03 17:55:00,20.9,16.0,30.09,NW,309,3.0,10.0,81,0.00,,,0.00,VWS V14.01,2013-02-03 22:55:00,
2013-02-03 18:00:00,20.7,15.8,30.09,WNW,284,2.0,5.0,81,0.00,,,0.00,VWS V14.01,2013-02-03 23:00:00,
2013-02-03 18:05:00,20.6,15.7,30.09,WNW,290,1.0,6.0,81,0.00,,,0.00,VWS V14.01,2013-02-03 23:05:00,
2013-02-03 18:10:00,20.5,15.6,30.09,WNW,297,1.0,6.0,81,0.00,,,0.00,VWS V14.01,2013-02-03 23:10:00,
2013-02-03 18:15:00,20.4,15.5,30.09,West,281,1.0,6.0,81,0.00,,,0.00,VWS V14.01,2013-02-03 23:15:00,
2013-02-03 18:20:00,20.3,15.4,30.09,WNW,284,1.0,6.0,81,0.00,,,0.00,VWS V14.01,2013-02-03 23:20:00,
2013-02-03 18:25:00,20.2,15.3,30.09,West,262,1.0,2.0,81,0.00,,,0.00,VWS V14.01,2013-02-03 23:25:00,
2013-02-03 18:30:00,20.1,15.5,30.09,WNW,283,0.0,2.0,82,0.00,,,0.00,VWS V14.01,2013-02-03 23:30:00,
2013-02-03 18:35:00,20.2,15.6,30.09,NW,312,1.0,5.0,82,0.00,,,0.00,VWS V14.01,2013-02-03 23:35:00,
2013-02-03 18:40:00,20.1,15.5,30.09,WSW,256,0.0,5.0,82,0.00,,,0.00,VWS V14.01,2013-02-03 23:40:00,
2013-02-03 18:45:00,20.1,15.5,30.09,West,269,2.0,5.0,82,0.00,,,0.00,VWS V14.01,2013-02-03 23:45:00,
2013-02-03 18:50:00,20.1,15.5,30.09,WNW,297,1.0,6.0,82,0.00,,,0.00,VWS V14.01,2013-02-03 23:50:00,
2013-02-03 18:55:00,20.0,15.4,30.09,West,278,1.0,6.0,82,0.00,,,0.00,VWS V14.01,2013-02-03 23:55:00,
2013-02-03 19:00:00,19.9,15.6,30.10,WNW,284,0.0,2.0,83,0.00,,,0.00,VWS V14.01,2013-02-04 00:00:00,
2013-02-03 19:05:00,19.8,15.5,30.10,WNW,287,1.0,2.0,83,0.00,,,0.00,VWS V14.01,2013-02-04 00:05:00,
2013-02-03 19:10:00,19.8,15.5,30.10,WSW,256,0.0,3.0,83,0.00,,,0.00,VWS V14.01,2013-02-04 00:10:00,
2013-02-03 19:15:00,19.7,15.7,30.11,WNW,282,0.0,4.0,84,0.00,,,0.00,VWS V14.01,2013-02-04 00:15:00,
2013-02-03 19:20:00,19.7,15.7,30.11,West,259,0.0,4.0,84,0.00,,,0.00,VWS V14.01,2013-02-04 00:20:00,
2013-02-03 19:25:00,19.7,15.7,30.11,West,259,0.0,4.0,84,0.00,,,0.00,VWS V14.01,2013-02-04 00:25:00,
2013-02-03 19:30:00,19.7,15.7,30.10,WSW,241,0.0,2.0,84,0.00,,,0.00,VWS V14.01,2013-02-04 00:30:00,
2013-02-03 19:35:00,19.5,15.5,30.10,West,269,0.0,2.0,84,0.00,,,0.00,VWS V14.01,2013-02-04 00:35:00,
2013-02-03 19:40:00,19.4,15.4,30.10,WNW,292,1.0,2.0,84,0.00,,,0.00,VWS V14.01,2013-02-04 00:40:00,
2013-02-03 19:45:00,19.4,15.4,30.10,WSW,253,1.0,2.0,84,0.00,,,0.00,VWS V14.01,2013-02-04 00:45:00,
2013-02-03 19:50:00,19.4,15.4,30.10,WSW,239,0.0,0.0,84,0.00,,,0.00,VWS V14.01,2013-02-04 00:50:00,
2013-02-03 19:55:00,19.2,15.2,30.10,West,264,0.0,1.0,84,0.00,,,0.00,VWS V14.01,2013-02-04 00:55:00,
2013-02-03 20:00:00,19.0,15.0,30.10,West,262,0.0,0.0,84,0.00,,,0.00,VWS V14.01,2013-02-04 01:00:00,
2013-02-03 20:05:00,18.9,14.9,30.10,SSW,211,0.0,1.0,84,0.00,,,0.00,VWS V14.01,2013-02-04 01:05:00,
2013-02-03 20:10:00,18.7,14.9,30.10,SSE,165,0.0,0.0,85,0.00,,,0.00,VWS V14.01,2013-02-04 01:10:00,
2013-02-03 20:15:00,18.4,14.6,30.10,SSE,165,0.0,0.0,85,0.00,,,0.00,VWS V14.01,2013-02-04 01:15:00,
2013-02-03 20:20:00,18.1,14.4,30.10,SSE,165,0.0,0.0,85,0.00,,,0.00,VWS V14.01,2013-02-04 01:20:00,
2013-02-03 20:25:00,18.0,14.5,30.10,SSE,165,0.0,0.0,86,0.00,,,0.00,VWS V14.01,2013-02-04 01:25:00,
2013-02-03 20:30:00,18.0,14.5,30.10,SW,218,0.0,0.0,86,0.00,,,0.00,VWS V14.01,2013-02-04 01:30:00,
2013-02-03 20:35:00,18.0,14.5,30.10,SW,233,0.0,0.0,86,0.00,,,0.00,VWS V14.01,2013-02-04 01:35:00,
2013-02-03 20:40:00,17.9,14.4,30.09,SSW,193,0.0,3.0,86,0.00,,,0.00,VWS V14.01,2013-02-04 01:40:00,
2013-02-03 20:46:00,17.8,14.3,30.09,South,169,0.0,0.0,86,0.00,,,0.00,VWS V14.01,2013-02-04 01:46:00,
2013-02-03 20:51:00,17.7,14.2,30.09,South,176,0.0,0.0,86,0.00,,,0.00,VWS V14.01,2013-02-04 01:51:00,
2013-02-03 20:56:00,17.5,14.0,30.10,SSW,204,0.0,0.0,86,0.00,,,0.00,VWS V14.01,2013-02-04 01:56:00,
2013-02-03 21:00:00,17.5,14.0,30.10,SSW,204,0.0,0.0,86,0.00,,,0.00,VWS V14.01,2013-02-04 02:00:00,
2013-02-03 21:01:00,17.4,13.9,30.10,SSW,201,0.0,0.0,86,0.00,,,0.00,VWS V14.01,2013-02-04 02:01:00,
2013-02-03 21:06:00,17.3,13.8,30.10,SSW,198,0.0,0.0,86,0.00,,,0.00,VWS V14.01,2013-02-04 02:06:00,
2013-02-03 21:11:00,17.4,13.9,30.10,SW,218,0.0,0.0,86,0.00,,,0.00,VWS V14.01,2013-02-04 02:11:00,
2013-02-03 21:17:00,17.5,14.0,30.10,SW,218,0.0,0.0,86,0.00,,,0.00,VWS V14.01,2013-02-04 02:17:00,
2013-02-03 21:22:00,17.7,14.2,30.10,SSW,204,1.0,2.0,86,0.00,,,0.00,VWS V14.01,2013-02-04 02:22:00,
2013-02-03 21:27:00,17.8,14.3,30.10,SW,225,0.0,0.0,86,0.00,,,0.00,VWS V14.01,2013-02-04 02:27:00,
2013-02-03 21:30:00,17.8,14.3,30.10,SW,225,0.0,0.0,86,0.00,,,0.00,VWS V14.01,2013-02-04 02:30:00,
2013-02-03 21:32:00,17.8,14.1,30.10,SW,219,1.0,2.0,85,0.00,,,0.00,VWS V14.01,2013-02-04 02:32:00,
2013-02-03 21:37:00,18.0,14.3,30.11,SW,229,0.0,2.0,85,0.00,,,0.00,VWS V14.01,2013-02-04 02:37:00,
2013-02-03 21:42:00,18.1,14.4,30.11,SW,219,1.0,2.0,85,0.00,,,0.00,VWS V14.01,2013-02-04 02:42:00,
2013-02-03 21:47:00,18.3,14.6,30.11,SW,223,0.0,2.0,85,0.00,,,0.00,VWS V14.01,2013-02-04 02:47:00,
2013-02-03 21:52:00,18.3,14.6,30.11,SW,217,0.0,2.0,85,0.00,,,0.00,VWS V14.01,2013-02-04 02:52:00,
2013-02-03 21:57:00,18.4,14.6,30.10,SSW,207,1.0,2.0,85,0.00,,,0.00,VWS V14.01,2013-02-04 02:57:00,
2013-02-03 22:00:00,18.4,14.6,30.10,SSW,212,0.0,2.0,85,0.00,,,0.00,VWS V14.01,2013-02-04 03:00:00,
2013-02-03 22:02:00,18.5,14.8,30.10,SSW,212,0.0,2.0,85,0.00,,,0.00,VWS V14.01,2013-02-04 03:02:00,
2013-02-03 22:07:00,18.6,14.6,30.10,WSW,249,0.0,2.0,84,0.00,,,0.00,VWS V14.01,2013-02-04 03:07:00,
2013-02-03 22:12:00,18.6,14.6,30.11,WSW,244,0.0,2.0,84,0.00,,,0.00,VWS V14.01,2013-02-04 03:12:00,
2013-02-03 22:17:00,18.6,14.9,30.11,SW,232,0.0,2.0,85,0.00,,,0.00,VWS V14.01,2013-02-04 03:17:00,
2013-02-03 22:22:00,18.8,15.1,30.11,SW,228,0.0,2.0,85,0.00,,,0.00,VWS V14.01,2013-02-04 03:22:00,
2013-02-03 22:27:00,19.1,15.1,30.11,West,269,0.0,5.0,84,0.00,,,0.00,VWS V14.01,2013-02-04 03:27:00,
2013-02-03 22:30:00,19.1,15.1,30.11,SW,222,0.0,5.0,84,0.00,,,0.00,VWS V14.01,2013-02-04 03:30:00,
2013-02-03 22:32:00,19.4,15.4,30.11,West,260,0.0,3.0,84,0.00,,,0.00,VWS V14.01,2013-02-04 03:32:00,
2013-02-03 22:37:00,19.6,15.3,30.11,SW,228,0.0,3.0,83,0.00,,,0.00,VWS V14.01,2013-02-04 03:37:00,
2013-02-03 22:42:00,19.8,15.2,30.11,WSW,242,0.0,6.0,82,0.00,,,0.00,VWS V14.01,2013-02-04 03:42:00,
2013-02-03 22:47:00,20.0,15.4,30.11,SW,217,0.0,6.0,82,0.00,,,0.00,VWS V14.01,2013-02-04 03:47:00,
2013-02-03 22:52:00,20.1,15.5,30.11,West,263,2.0,2.0,82,0.00,,,0.00,VWS V14.01,2013-02-04 03:52:00,
2013-02-03 22:57:00,20.2,15.3,30.11,SW,218,0.0,3.0,81,0.00,,,0.00,VWS V14.01,2013-02-04 03:57:00,
2013-02-03 23:00:00,20.2,15.3,30.11,West,279,1.0,3.0,81,0.00,,,0.00,VWS V14.01,2013-02-04 04:00:00,
2013-02-03 23:02:00,20.4,15.5,30.11,WSW,252,0.0,4.0,81,0.00,,,0.00,VWS V14.01,2013-02-04 04:02:00,
2013-02-03 23:07:00,20.5,15.6,30.11,SW,215,1.0,4.0,81,0.00,,,0.00,VWS V14.01,2013-02-04 04:07:00,
2013-02-03 23:12:00,20.7,15.8,30.11,WSW,242,1.0,6.0,81,0.00,,,0.00,VWS V14.01,2013-02-04 04:12:00,
2013-02-03 23:17:00,20.8,15.6,30.11,SW,226,2.0,6.0,80,0.00,,,0.00,VWS V14.01,2013-02-04 04:17:00,
2013-02-03 23:22:00,20.9,15.7,30.12,WSW,245,1.0,6.0,80,0.00,,,0.00,VWS V14.01,2013-02-04 04:22:00,
2013-02-03 23:27:00,21.1,15.9,30.12,SW,228,0.0,6.0,80,0.00,,,0.00,VWS V14.01,2013-02-04 04:27:00,
2013-02-03 23:30:00,21.1,15.9,30.12,SW,236,0.0,6.0,80,0.00,,,0.00,VWS V14.01,2013-02-04 04:30:00,
2013-02-03 23:32:00,21.2,16.0,30.11,WSW,248,2.0,3.0,80,0.00,,,0.00,VWS V14.01,2013-02-04 04:32:00,
2013-02-03 23:37:00,21.3,15.8,30.11,SW,235,0.0,0.0,79,0.00,,,0.00,VWS V14.01,2013-02-04 04:37:00,
2013-02-03 23:42:00,21.3,15.8,30.11,West,273,0.0,8.0,79,0.00,,,0.00,VWS V14.01,2013-02-04 04:42:00,
2013-02-03 23:47:00,21.3,15.8,30.11,WSW,257,0.0,8.0,79,0.00,,,0.00,VWS V14.01,2013-02-04 04:47:00,
2013-02-03 23:52:00,21.2,15.7,30.11,SW,221,0.0,8.0,79,0.00,,,0.00,VWS V14.01,2013-02-04 04:52:00,
2013-02-03 23:57:00,21.2,15.7,30.11,SW,231,1.0,8.0,79,0.00,,,0.00,VWS V14.01,2013-02-04 04:57:00,